Time;durP1;ratioP1;P1;durP2;ratioP2;P2;SDS_P1;SDS_P2;PMS_P1;PMS_P2;Temp;Humidity;BMP_temperature;BMP_pressure;BME280_temperature;BME280_humidity;BME280_pressure;Samples;Min_cycle;Max_cycle;Signal;HPM_P1;HPM_P2
2022/08/26 00:01:42;;;;;;;7.10;4.75;;;22.10;99.90;;;;;;5033022;28;20144;-67
2022/08/26 00:04:46;;;;;;;8.70;4.22;;;22.10;99.90;;;;;;5032568;28;20052;-67
2022/08/26 00:11:32;;;;;;;11.20;5.00;;;22.10;99.90;;;;;;5032897;28;20052;-67
2022/08/26 00:14:37;;;;;;;8.05;4.30;;;22.20;99.90;;;;;;5032875;28;20048;-67
2022/08/26 00:17:42;;;;;;;8.88;5.00;;;22.20;99.90;;;;;;5032428;28;20056;-66
2022/08/26 00:20:46;;;;;;;7.10;4.15;;;22.30;99.90;;;;;;5032796;28;20056;-69
2022/08/26 00:23:50;;;;;;;12.73;5.32;;;22.20;99.90;;;;;;5032847;28;20044;-68
2022/08/26 00:26:54;;;;;;;7.32;4.63;;;22.10;99.90;;;;;;5031708;28;20420;-68
2022/08/26 00:29:59;;;;;;;10.25;5.05;;;22.10;99.90;;;;;;5032324;28;20495;-68
2022/08/26 00:33:04;;;;;;;7.93;4.40;;;21.90;99.90;;;;;;5032935;28;20041;-68
2022/08/26 00:36:09;;;;;;;9.07;5.65;;;21.90;99.90;;;;;;5032687;28;20053;-68
2022/08/26 00:39:14;;;;;;;8.40;4.70;;;21.90;99.90;;;;;;5032699;28;20315;-68
2022/08/26 00:42:56;;;;;;;7.35;4.88;;;21.90;99.90;;;;;;5032037;28;20060;-68
2022/08/26 00:46:09;;;;;;;8.13;5.10;;;21.80;99.90;;;;;;5032695;28;20056;-68
2022/08/26 00:49:26;;;;;;;7.95;4.50;;;21.80;99.90;;;;;;5032359;28;20041;-68
2022/08/26 00:52:30;;;;;;;9.40;4.60;;;21.70;99.90;;;;;;5031876;28;20044;-68
2022/08/26 00:55:39;;;;;;;7.25;4.95;;;21.60;99.90;;;;;;5032512;28;20045;-68
2022/08/26 00:58:46;;;;;;;8.27;5.00;;;21.60;99.90;;;;;;5032706;28;20052;-68
2022/08/26 01:01:50;;;;;;;7.88;5.40;;;21.60;99.90;;;;;;5032618;28;20060;-68
2022/08/26 01:04:59;;;;;;;10.10;5.22;;;21.60;99.90;;;;;;5031835;28;20057;-68
2022/08/26 01:08:04;;;;;;;8.63;4.80;;;21.60;99.90;;;;;;5032048;28;20048;-67
2022/08/26 01:11:09;;;;;;;5.07;4.43;;;21.60;99.90;;;;;;5031780;28;20388;-68
2022/08/26 01:14:15;;;;;;;9.25;5.15;;;21.50;99.90;;;;;;5030729;28;20037;-68
2022/08/26 01:17:19;;;;;;;10.13;5.53;;;21.50;99.90;;;;;;5031976;28;20052;-68
2022/08/26 01:24:20;;;;;;;9.32;5.32;;;21.50;99.90;;;;;;5031513;28;20052;-68
2022/08/26 01:27:43;;;;;;;11.40;5.65;;;21.50;99.90;;;;;;5031556;28;20416;-68
2022/08/26 01:30:51;;;;;;;8.02;4.78;;;21.50;99.90;;;;;;5031398;28;20041;-68
2022/08/26 01:34:17;;;;;;;9.30;5.18;;;21.50;99.90;;;;;;5030928;28;20044;-68
2022/08/26 01:37:29;;;;;;;9.60;5.03;;;21.50;99.90;;;;;;5031264;28;20049;-68
2022/08/26 01:40:37;;;;;;;8.50;5.88;;;21.40;99.90;;;;;;5031017;28;20045;-68
2022/08/26 01:43:45;;;;;;;7.60;4.90;;;21.30;99.90;;;;;;5030854;28;20503;-68
2022/08/26 01:46:50;;;;;;;8.10;5.00;;;21.20;99.90;;;;;;5031175;28;20036;-68
2022/08/26 01:50:20;;;;;;;7.60;5.55;;;21.20;99.90;;;;;;5031544;28;20052;-68
2022/08/26 01:53:43;;;;;;;10.25;5.32;;;21.10;99.90;;;;;;5030909;28;20396;-68
2022/08/26 01:56:48;;;;;;;8.07;5.57;;;20.90;99.90;;;;;;5031451;28;20056;-68
2022/08/26 01:59:57;;;;;;;8.05;5.40;;;20.80;99.90;;;;;;5031424;28;20040;-68
2022/08/26 02:03:17;;;;;;;10.43;5.47;;;20.80;99.90;;;;;;5030413;28;20376;-68
2022/08/26 02:06:22;;;;;;;8.35;6.00;;;20.70;99.90;;;;;;5031005;28;20040;-68
2022/08/26 02:13:10;;;;;;;11.13;5.57;;;20.60;99.90;;;;;;5030698;28;20045;-68
2022/08/26 02:20:02;;;;;;;9.05;5.43;;;20.50;99.90;;;;;;5031209;28;20048;-68
2022/08/26 02:23:07;;;;;;;12.32;6.07;;;20.40;99.90;;;;;;5030838;28;20053;-68
2022/08/26 02:26:18;;;;;;;9.32;5.93;;;20.40;99.90;;;;;;5030489;28;20056;-68
2022/08/26 02:29:43;;;;;;;9.50;6.03;;;20.40;99.90;;;;;;5030376;28;20053;-68
2022/08/26 02:32:48;;;;;;;9.05;5.78;;;20.40;99.90;;;;;;5030265;28;20044;-68
2022/08/26 02:35:52;;;;;;;10.13;6.13;;;20.30;99.90;;;;;;5031033;28;20049;-68
2022/08/26 02:38:58;;;;;;;7.82;5.82;;;20.30;99.90;;;;;;5030864;28;20048;-67
2022/08/26 02:42:39;;;;;;;8.75;5.93;;;20.40;99.90;;;;;;5030881;28;20052;-68
2022/08/26 02:45:44;;;;;;;8.60;6.15;;;20.40;99.90;;;;;;5030254;28;20052;-68
2022/08/26 02:48:50;;;;;;;13.15;6.00;;;20.40;99.90;;;;;;5030913;28;20041;-68
2022/08/26 02:51:53;;;;;;;13.68;6.78;;;20.40;99.90;;;;;;5030271;28;20076;-68
2022/08/26 02:54:57;;;;;;;10.68;5.90;;;20.50;99.90;;;;;;5030108;28;20044;-68
2022/08/26 02:58:21;;;;;;;8.82;6.22;;;20.40;99.90;;;;;;5030435;28;20064;-68
2022/08/26 03:01:28;;;;;;;8.95;5.93;;;20.50;99.90;;;;;;5030256;28;20048;-68
2022/08/26 03:04:32;;;;;;;10.65;5.68;;;20.50;99.90;;;;;;5029812;28;20052;-68
2022/08/26 03:07:37;;;;;;;9.13;5.50;;;20.50;99.90;;;;;;5030839;28;20080;-68
2022/08/26 03:10:41;;;;;;;9.93;5.75;;;20.60;99.90;;;;;;5030210;28;20036;-68
2022/08/26 03:13:45;;;;;;;8.73;5.88;;;20.60;99.90;;;;;;5031411;28;20036;-68
2022/08/26 03:16:52;;;;;;;14.38;5.85;;;20.70;99.90;;;;;;5034708;28;20392;-68
2022/08/26 03:19:56;;;;;;;8.18;5.43;;;20.60;99.90;;;;;;5033894;28;20045;-68
2022/08/26 03:23:00;;;;;;;13.55;6.10;;;20.60;99.90;;;;;;5033868;28;20388;-68
2022/08/26 03:26:06;;;;;;;10.02;6.05;;;20.50;99.90;;;;;;5033120;28;20045;-68
2022/08/26 03:32:32;;;;;;;10.32;5.97;;;20.40;99.90;;;;;;5034232;28;20041;-68
2022/08/26 03:35:42;;;;;;;23.13;6.43;;;20.20;99.90;;;;;;5033958;28;20033;-68
2022/08/26 03:38:46;;;;;;;10.23;6.70;;;20.20;99.90;;;;;;5033966;28;20542;-68
2022/08/26 03:41:51;;;;;;;13.27;6.25;;;20.20;99.90;;;;;;5034103;28;20048;-67
2022/08/26 03:44:55;;;;;;;12.20;6.22;;;20.20;99.90;;;;;;5033282;28;20048;-68
2022/08/26 03:48:18;;;;;;;11.60;6.50;;;20.20;99.90;;;;;;5033647;28;20491;-68
2022/08/26 03:51:22;;;;;;;8.18;6.38;;;20.20;99.90;;;;;;5034323;28;20044;-68
2022/08/26 03:54:25;;;;;;;9.98;6.60;;;20.20;99.90;;;;;;5032880;28;20040;-68
2022/08/26 03:57:30;;;;;;;9.10;6.93;;;20.20;99.90;;;;;;5033185;28;20060;-68
2022/08/26 04:00:34;;;;;;;10.75;6.88;;;20.20;99.90;;;;;;5033379;28;20408;-68
2022/08/26 04:07:00;;;;;;;9.82;6.40;;;20.10;99.90;;;;;;5033109;28;20053;-68
2022/08/26 04:10:05;;;;;;;10.07;6.68;;;20.00;99.90;;;;;;5033295;28;20057;-68
2022/08/26 04:13:10;;;;;;;10.38;5.88;;;19.90;99.90;;;;;;5033192;28;20040;-68
2022/08/26 04:16:34;;;;;;;9.45;6.43;;;19.90;99.90;;;;;;5033637;28;20378;-68
2022/08/26 04:19:38;;;;;;;12.73;7.22;;;19.90;99.90;;;;;;5033664;28;20044;-68
2022/08/26 04:22:43;;;;;;;13.00;7.35;;;19.80;99.90;;;;;;5032854;28;20048;-69
2022/08/26 04:29:20;;;;;;;11.15;6.78;;;19.80;99.90;;;;;;5032465;28;20049;-68
2022/08/26 04:32:42;;;;;;;10.05;6.20;;;19.80;99.90;;;;;;5032296;28;20148;-68
2022/08/26 04:35:47;;;;;;;8.95;6.95;;;19.70;99.90;;;;;;5032499;28;20385;-69
2022/08/26 04:38:51;;;;;;;12.10;7.07;;;19.60;99.90;;;;;;5031591;28;20044;-68
2022/08/26 04:42:14;;;;;;;13.45;7.35;;;19.60;99.90;;;;;;5031986;28;20040;-69
2022/08/26 04:45:18;;;;;;;18.83;7.68;;;19.60;99.90;;;;;;5031435;28;20507;-68
2022/08/26 04:48:22;;;;;;;14.27;7.20;;;19.50;99.90;;;;;;5031739;28;20052;-68
2022/08/26 04:51:47;;;;;;;9.88;6.45;;;19.50;99.90;;;;;;5032014;28;20052;-68
2022/08/26 04:54:51;;;;;;;11.82;7.05;;;19.50;99.90;;;;;;5030726;28;20056;-69
2022/08/26 04:57:56;;;;;;;10.88;6.47;;;19.60;99.90;;;;;;5031904;28;20049;-68
2022/08/26 05:01:00;;;;;;;14.80;6.80;;;19.70;99.90;;;;;;5031837;28;20044;-69
2022/08/26 05:04:04;;;;;;;14.48;6.82;;;19.80;99.90;;;;;;5031829;28;20276;-69
2022/08/26 05:07:09;;;;;;;13.00;6.70;;;19.90;99.90;;;;;;5028860;28;20049;-68
2022/08/26 05:10:13;;;;;;;12.73;6.60;;;20.00;99.90;;;;;;5028661;28;20048;-68
2022/08/26 05:13:19;;;;;;;12.07;6.30;;;20.20;99.90;;;;;;5031774;28;20036;-69
2022/08/26 05:16:23;;;;;;;9.82;6.07;;;20.20;99.90;;;;;;5027827;28;20331;-68
2022/08/26 05:19:30;;;;;;;9.25;6.38;;;20.30;99.90;;;;;;5011895;28;20518;-69
2022/08/26 05:22:35;;;;;;;10.38;6.38;;;20.50;99.90;;;;;;5011918;28;20045;-69
2022/08/26 05:25:42;;;;;;;10.73;5.97;;;21.10;99.90;;;;;;5011772;28;20057;-69
2022/08/26 05:28:46;;;;;;;14.27;6.10;;;22.90;99.90;;;;;;5011871;28;20068;-69
2022/08/26 05:31:52;;;;;;;14.48;5.75;;;24.80;99.90;;;;;;5011725;28;20041;-69
2022/08/26 05:34:56;;;;;;;12.13;5.38;;;26.70;99.90;;;;;;5011295;28;20513;-68
2022/08/26 05:38:01;;;;;;;13.77;5.43;;;28.50;99.90;;;;;;5010887;28;20049;-69
2022/08/26 05:41:17;;;;;;;6.45;4.97;;;29.90;99.90;;;;;;5011383;28;20045;-70
2022/08/26 05:44:21;;;;;;;11.15;4.93;;;31.20;99.90;;;;;;5011544;28;20064;-69
2022/08/26 05:47:25;;;;;;;8.38;4.68;;;32.00;99.90;;;;;;5012016;28;20041;-69
2022/08/26 05:50:30;;;;;;;6.85;4.18;;;32.80;99.70;;;;;;5011719;28;20053;-70
2022/08/26 05:53:35;;;;;;;9.60;4.78;;;33.20;98.70;;;;;;5011125;28;20045;-70
2022/08/26 05:56:39;;;;;;;12.18;4.70;;;33.00;98.10;;;;;;5011364;28;20057;-69
2022/08/26 06:00:02;;;;;;;7.88;4.43;;;33.20;97.40;;;;;;5011632;28;20427;-69
2022/08/26 06:03:16;;;;;;;8.32;4.25;;;31.70;98.30;;;;;;5011292;28;20046;-69
2022/08/26 06:06:34;;;;;;;10.30;4.50;;;30.30;99.90;;;;;;5011663;28;20049;-68
2022/08/26 06:09:38;;;;;;;10.15;4.45;;;30.60;99.90;;;;;;5012114;28;20392;-67
2022/08/26 06:12:42;;;;;;;7.18;3.95;;;31.30;99.40;;;;;;5019469;28;20389;-69
2022/08/26 06:15:49;;;;;;;7.88;4.00;;;32.20;98.40;;;;;;5023081;28;20056;-69
2022/08/26 06:18:54;;;;;;;8.18;4.22;;;33.10;97.00;;;;;;5016048;28;20053;-69
2022/08/26 06:25:36;;;;;;;8.45;4.28;;;33.80;96.50;;;;;;5023662;28;20040;-68
2022/08/26 06:25:37;;;;;;;8.02;4.35;;;34.20;95.70;;;;;;5023762;28;20065;-69
2022/08/26 06:28:42;;;;;;;5.78;4.50;;;32.60;96.40;;;;;;5018257;28;20056;-69
2022/08/26 06:31:46;;;;;;;6.93;4.28;;;31.60;97.10;;;;;;5030059;28;20699;-69
2022/08/26 06:34:50;;;;;;;8.73;4.97;;;31.50;97.20;;;;;;5013945;28;20040;-68
2022/08/26 06:37:54;;;;;;;6.20;3.75;;;32.10;96.90;;;;;;5017773;28;20037;-69
2022/08/26 06:41:19;;;;;;;7.07;4.00;;;32.40;96.60;;;;;;5011318;28;20045;-69
2022/08/26 06:44:23;;;;;;;6.10;3.70;;;33.00;95.90;;;;;;5024371;28;20045;-69
2022/08/26 06:47:28;;;;;;;7.50;3.65;;;33.20;95.60;;;;;;5022662;28;20041;-68
2022/08/26 06:50:33;;;;;;;10.68;3.38;;;34.00;95.00;;;;;;5016989;28;20048;-70
2022/08/26 06:53:39;;;;;;;22.27;4.00;;;33.90;94.70;;;;;;5027597;28;20045;-69
2022/08/26 06:56:43;;;;;;;8.40;3.65;;;33.90;94.20;;;;;;5024603;28;20045;-69
2022/08/26 07:00:10;;;;;;;6.55;3.63;;;34.70;93.70;;;;;;5034429;28;20537;-69
2022/08/26 07:03:14;;;;;;;5.53;3.85;;;35.30;92.90;;;;;;5027859;28;20052;-69
2022/08/26 07:06:19;;;;;;;6.45;4.10;;;35.80;92.10;;;;;;5014674;28;20052;-69
2022/08/26 07:09:43;;;;;;;5.30;3.35;;;35.40;91.90;;;;;;5026191;28;20048;-69
2022/08/26 07:19:35;;;;;;;6.82;3.75;;;32.30;94.10;;;;;;5019943;28;20052;-69
2022/08/26 07:22:58;;;;;;;8.32;3.90;;;31.90;94.30;;;;;;5023684;28;20045;-69
2022/08/26 07:26:07;;;;;;;6.88;3.22;;;32.70;93.90;;;;;;5023857;28;20516;-69
2022/08/26 07:29:12;;;;;;;7.70;3.47;;;33.50;93.50;;;;;;5025486;28;20578;-69
2022/08/26 07:32:19;;;;;;;5.57;3.28;;;35.10;92.30;;;;;;5033550;28;20060;-69
2022/08/26 07:35:25;;;;;;;7.15;2.90;;;36.70;91.10;;;;;;5032613;28;20040;-69
2022/08/26 07:38:47;;;;;;;5.65;3.13;;;37.00;90.60;;;;;;5028669;28;20045;-68
2022/08/26 07:41:52;;;;;;;13.15;3.17;;;37.90;89.80;;;;;;5013350;28;20511;-69
2022/08/26 07:44:56;;;;;;;5.07;2.90;;;38.40;88.00;;;;;;5018258;28;20045;-69
2022/08/26 07:48:04;;;;;;;8.65;3.10;;;39.10;87.20;;;;;;5013061;28;20061;-70
2022/08/26 07:51:07;;;;;;;4.68;2.97;;;40.00;85.00;;;;;;5022581;28;20388;-70
2022/08/26 07:54:31;;;;;;;6.10;3.58;;;40.50;83.70;;;;;;5022841;28;20037;-69
2022/08/26 07:57:37;;;;;;;5.18;2.85;;;40.10;82.70;;;;;;5013005;28;20037;-69
2022/08/26 08:00:41;;;;;;;3.90;2.83;;;40.90;80.70;;;;;;5012091;28;20049;-70
2022/08/26 08:04:23;;;;;;;5.93;2.67;;;41.20;79.40;;;;;;5025087;28;20045;-69
2022/08/26 08:07:28;;;;;;;3.85;2.90;;;41.60;78.60;;;;;;5022318;28;20069;-69
2022/08/26 08:10:35;;;;;;;7.28;3.17;;;41.40;77.50;;;;;;5033140;28;20045;-70
2022/08/26 08:13:39;;;;;;;5.05;3.10;;;41.70;77.20;;;;;;5022315;28;20396;-69
2022/08/26 08:16:42;;;;;;;3.38;2.75;;;41.90;77.80;;;;;;5019930;28;20057;-69
2022/08/26 08:19:46;;;;;;;4.50;2.85;;;42.20;76.40;;;;;;5020326;28;20056;-69
2022/08/26 08:22:51;;;;;;;9.75;3.05;;;42.70;75.20;;;;;;5014715;28;20061;-69
2022/08/26 08:26:14;;;;;;;4.30;2.45;;;42.20;74.80;;;;;;5031637;28;20384;-68
2022/08/26 08:29:18;;;;;;;6.72;2.72;;;43.10;74.10;;;;;;5019975;28;20520;-70
2022/08/26 08:32:22;;;;;;;4.97;2.38;;;43.60;72.60;;;;;;5017839;28;20057;-70
2022/08/26 08:35:27;;;;;;;5.90;3.03;;;43.10;72.40;;;;;;5015705;28;20036;-69
2022/08/26 08:38:31;;;;;;;10.43;3.45;;;40.80;74.50;;;;;;5012997;28;20037;-69
2022/08/26 08:42:12;;;;;;;6.78;3.05;;;39.30;77.20;;;;;;5019843;28;20041;-68
2022/08/26 08:45:36;;;;;;;6.07;2.97;;;39.10;76.90;;;;;;5028691;28;20479;-68
2022/08/26 08:48:45;;;;;;;5.80;2.70;;;39.50;75.80;;;;;;5029253;28;20036;-68
2022/08/26 08:52:24;;;;;;;3.88;2.65;;;42.10;73.80;;;;;;5024207;28;20045;-69
2022/08/26 08:55:47;;;;;;;6.50;2.72;;;43.80;71.90;;;;;;5012893;28;20033;-68
2022/08/26 08:59:03;;;;;;;9.38;2.67;;;44.00;70.20;;;;;;5024217;28;20056;-69
2022/08/26 09:02:28;;;;;;;4.70;2.70;;;44.50;70.00;;;;;;5022131;28;20506;-68
2022/08/26 09:05:54;;;;;;;3.80;2.47;;;45.30;69.70;;;;;;5022645;28;20049;-69
2022/08/26 09:09:01;;;;;;;5.85;2.75;;;46.00;67.80;;;;;;5021536;28;20037;-70
2022/08/26 09:12:12;;;;;;;3.88;2.45;;;46.50;66.30;;;;;;5015355;28;20033;-68
2022/08/26 09:15:42;;;;;;;4.63;2.40;;;46.20;66.20;;;;;;5015631;28;20048;-68
2022/08/26 09:19:23;;;;;;;7.82;2.97;;;46.50;66.00;;;;;;5023854;28;20056;-69
2022/08/26 09:26:15;;;;;;;4.10;2.50;;;48.10;64.50;;;;;;5026787;28;20496;-69
2022/08/26 09:29:40;;;;;;;9.70;2.60;;;49.00;63.10;;;;;;5012129;28;20404;-69
2022/08/26 09:33:01;;;;;;;5.22;2.60;;;47.30;62.80;;;;;;5011777;28;20041;-70
2022/08/26 09:36:14;;;;;;;4.72;2.47;;;47.70;64.40;;;;;;5023991;28;20492;-69
2022/08/26 09:39:44;;;;;;;4.47;2.63;;;48.60;62.50;;;;;;5030856;28;20044;-68
2022/08/26 09:43:06;;;;;;;4.95;2.53;;;49.40;61.70;;;;;;5030228;28;20744;-68
2022/08/26 09:46:23;;;;;;;6.75;2.90;;;48.50;61.00;;;;;;5027603;28;20056;-70
2022/08/26 09:49:39;;;;;;;5.03;2.40;;;47.90;63.00;;;;;;5021939;28;20495;-69
2022/08/26 09:52:43;;;;;;;4.35;2.22;;;49.80;61.80;;;;;;5012559;28;20393;-69
2022/08/26 09:56:09;;;;;;;4.30;2.30;;;51.00;60.10;;;;;;5022686;28;20040;-69
2022/08/26 09:59:13;;;;;;;5.50;2.10;;;51.20;58.80;;;;;;5016724;28;20500;-68
2022/08/26 10:02:32;;;;;;;3.58;2.10;;;49.40;59.30;;;;;;5019027;28;20428;-68
2022/08/26 10:05:42;;;;;;;4.55;2.60;;;47.40;61.50;;;;;;5021386;28;20049;-68
2022/08/26 10:08:59;;;;;;;5.28;2.70;;;45.00;62.90;;;;;;5020918;28;20049;-68
2022/08/26 10:12:14;;;;;;;6.13;2.83;;;42.30;64.50;;;;;;5010556;28;20049;-68
2022/08/26 10:15:21;;;;;;;8.68;3.00;;;40.50;67.10;;;;;;5021068;28;20056;-67
2022/08/26 10:18:48;;;;;;;5.63;3.58;;;38.10;69.20;;;;;;5018048;28;20057;-68
2022/08/26 10:21:54;;;;;;;5.15;3.58;;;36.20;71.80;;;;;;5021583;28;20323;-68
2022/08/26 10:25:02;;;;;;;6.22;3.20;;;35.20;73.90;;;;;;5011275;28;20049;-68
2022/08/26 10:28:27;;;;;;;7.88;3.80;;;34.80;74.40;;;;;;5017458;28;20472;-68
2022/08/26 10:31:45;;;;;;;6.75;4.00;;;34.30;75.40;;;;;;5010512;28;20057;-67
2022/08/26 10:49:14;;;;;;;13.52;6.00;;;29.20;96.10;;;;;;5026628;28;20052;-68
2022/08/26 10:57:11;;;;;;;11.82;6.68;;;28.40;99.90;;;;;;5031504;28;20044;-68
2022/08/26 11:04:28;;;;;;;9.25;5.90;;;28.10;99.90;;;;;;5015499;28;20072;-68
2022/08/26 11:07:44;;;;;;;6.95;4.85;;;27.50;99.90;;;;;;5010475;28;20040;-68
2022/08/26 11:10:55;;;;;;;6.85;4.57;;;27.30;99.90;;;;;;5028090;28;20068;-68
2022/08/26 11:14:04;;;;;;;8.05;3.78;;;27.40;99.90;;;;;;5029818;28;20041;-68
2022/08/26 11:17:10;;;;;;;6.90;3.65;;;27.80;99.90;;;;;;5026100;28;20040;-68
2022/08/26 11:20:35;;;;;;;6.45;3.85;;;28.30;99.90;;;;;;5016345;28;20044;-68
2022/08/26 11:23:46;;;;;;;8.20;4.47;;;29.10;99.80;;;;;;5018442;28;20396;-67
2022/08/26 11:26:50;;;;;;;7.72;3.85;;;29.40;98.10;;;;;;5020095;28;20045;-67
2022/08/26 11:30:03;;;;;;;11.68;4.50;;;30.00;97.70;;;;;;5010501;28;20037;-68
2022/08/26 11:33:07;;;;;;;6.50;4.30;;;29.90;97.60;;;;;;5019048;28;20044;-68
2022/08/26 11:37:00;;;;;;;9.82;4.45;;;29.60;97.50;;;;;;5027558;28;20358;-68
2022/08/26 11:40:12;;;;;;;10.32;4.82;;;28.90;98.70;;;;;;5007828;28;20045;-67
2022/08/26 11:43:20;;;;;;;9.05;4.90;;;28.40;99.90;;;;;;5013574;28;20061;-68
2022/08/26 11:46:29;;;;;;;9.32;4.72;;;28.00;99.90;;;;;;5022665;28;20040;-67
2022/08/26 11:59:32;;;;;;;7.03;3.70;;;32.10;95.40;;;;;;5018960;28;20036;-68
2022/08/26 12:02:39;;;;;;;8.98;2.92;;;33.60;93.10;;;;;;5012983;28;20060;-69
2022/08/26 12:05:46;;;;;;;6.10;3.25;;;33.40;92.50;;;;;;5019480;28;20057;-69
2022/08/26 12:09:09;;;;;;;5.32;3.28;;;34.30;92.10;;;;;;5012518;28;20045;-68
2022/08/26 12:12:17;;;;;;;7.65;3.65;;;33.70;91.80;;;;;;5021177;28;20037;-69
2022/08/26 12:15:21;;;;;;;8.65;3.30;;;34.60;91.00;;;;;;5021959;28;20484;-68
2022/08/26 12:18:29;;;;;;;8.15;3.75;;;34.30;91.30;;;;;;5032999;28;20048;-68
2022/08/26 12:21:33;;;;;;;4.50;2.75;;;34.50;90.90;;;;;;5032924;28;20036;-69
2022/08/26 12:25:04;;;;;;;4.32;2.90;;;34.90;91.90;;;;;;5032643;28;20057;-69
2022/08/26 12:28:09;;;;;;;4.72;2.92;;;35.90;89.20;;;;;;5032852;28;20048;-69
2022/08/26 12:31:25;;;;;;;5.50;2.85;;;38.30;85.80;;;;;;5033118;28;20045;-69
2022/08/26 12:34:29;;;;;;;3.47;2.50;;;39.70;82.70;;;;;;5032473;28;20037;-69
2022/08/26 12:37:39;;;;;;;5.53;2.88;;;39.60;81.60;;;;;;5032831;28;20049;-69
2022/08/26 12:41:02;;;;;;;5.75;2.65;;;40.60;80.40;;;;;;5032162;28;20037;-70
2022/08/26 12:47:58;;;;;;;4.28;2.47;;;41.90;79.70;;;;;;5030086;28;20487;-69
2022/08/26 12:51:06;;;;;;;2.75;2.42;;;40.50;77.80;;;;;;5031415;28;20044;-70
2022/08/26 12:54:14;;;;;;;3.72;2.47;;;39.40;80.40;;;;;;5031393;28;20388;-70
2022/08/26 12:57:26;;;;;;;5.85;2.38;;;40.40;79.30;;;;;;5031512;28;20041;-71
2022/08/26 13:00:34;;;;;;;4.63;2.30;;;40.70;77.90;;;;;;5031284;28;20041;-71
2022/08/26 13:03:44;;;;;;;5.63;2.60;;;42.00;80.20;;;;;;5030719;28;20503;-70
2022/08/26 13:06:47;;;;;;;3.63;2.50;;;40.90;78.70;;;;;;5031485;28;20044;-70
2022/08/26 13:09:57;;;;;;;10.38;3.72;;;39.50;80.70;;;;;;5030983;28;20068;-70
2022/08/26 13:13:01;;;;;;;4.85;3.10;;;37.90;82.70;;;;;;5031036;28;20045;-69
2022/08/26 13:16:06;;;;;;;9.65;3.05;;;36.60;86.20;;;;;;5030956;28;20033;-68
2022/08/26 13:19:13;;;;;;;6.93;3.60;;;33.90;88.90;;;;;;5030875;28;20044;-69
2022/08/26 13:25:43;;;;;;;8.82;3.63;;;31.20;94.40;;;;;;5030516;28;20064;-69
2022/08/26 13:28:48;;;;;;;7.38;3.72;;;30.80;95.60;;;;;;5030683;28;20041;-68
2022/08/26 13:31:52;;;;;;;9.40;4.60;;;30.70;96.10;;;;;;5030638;28;20052;-68
2022/08/26 13:38:19;;;;;;;8.48;3.83;;;30.70;96.30;;;;;;5030593;28;20045;-68
2022/08/26 13:41:23;;;;;;;10.85;4.40;;;30.60;97.30;;;;;;5030442;28;20515;-69
2022/08/26 13:44:27;;;;;;;5.75;3.58;;;30.60;97.60;;;;;;5030050;28;20400;-69
2022/08/26 13:47:50;;;;;;;8.43;4.20;;;30.90;97.60;;;;;;5030881;28;20092;-68
2022/08/26 13:51:13;;;;;;;5.38;4.30;;;31.30;97.40;;;;;;5030090;28;20052;-68
2022/08/26 13:54:16;;;;;;;6.70;3.80;;;31.70;97.00;;;;;;5030573;28;20044;-68
2022/08/26 13:57:39;;;;;;;6.70;4.15;;;31.90;96.70;;;;;;5030104;28;20049;-68
2022/08/26 14:00:43;;;;;;;5.00;3.30;;;32.10;97.00;;;;;;5030510;28;20424;-69
2022/08/26 14:04:07;;;;;;;9.60;3.63;;;32.20;96.30;;;;;;5028859;28;20060;-68
2022/08/26 14:07:11;;;;;;;6.90;3.53;;;32.20;96.50;;;;;;5030273;28;20048;-68
2022/08/26 14:10:15;;;;;;;9.05;3.92;;;32.40;96.80;;;;;;5029973;28;20072;-69
2022/08/26 14:13:20;;;;;;;6.78;3.85;;;32.60;97.00;;;;;;5029362;28;20037;-68
2022/08/26 14:16:30;;;;;;;9.05;3.55;;;32.70;96.80;;;;;;5029983;28;20041;-69
2022/08/26 14:19:34;;;;;;;5.15;3.58;;;32.80;96.30;;;;;;5029870;28;20056;-69
2022/08/26 14:22:41;;;;;;;9.43;3.58;;;32.80;96.00;;;;;;5029719;28;20412;-69
2022/08/26 14:25:45;;;;;;;4.07;3.63;;;32.80;95.70;;;;;;5029964;28;20060;-68
2022/08/26 14:28:49;;;;;;;4.05;3.28;;;33.10;95.80;;;;;;5029802;28;20060;-68
2022/08/26 14:31:55;;;;;;;5.82;3.45;;;33.00;96.00;;;;;;5029771;28;20095;-68
2022/08/26 14:35:00;;;;;;;7.03;4.28;;;33.10;96.30;;;;;;5029246;28;20491;-68
2022/08/26 14:38:04;;;;;;;7.35;4.13;;;33.20;95.60;;;;;;5029437;28;20467;-69
2022/08/26 14:41:09;;;;;;;8.90;3.97;;;33.20;95.40;;;;;;5029871;28;20049;-69
2022/08/26 14:44:33;;;;;;;7.45;3.72;;;33.20;94.70;;;;;;5028875;28;20040;-68
2022/08/26 14:47:37;;;;;;;9.07;3.50;;;33.00;95.30;;;;;;5029798;28;20052;-68
2022/08/26 14:50:41;;;;;;;6.78;3.83;;;32.90;95.80;;;;;;5029706;28;20052;-68
2022/08/26 14:57:10;;;;;;;6.10;3.45;;;32.30;96.10;;;;;;5029637;28;20036;-68
2022/08/26 15:00:15;;;;;;;5.40;4.00;;;32.00;96.00;;;;;;5029578;28;20052;-68
2022/08/26 15:03:19;;;;;;;10.25;3.65;;;31.60;96.50;;;;;;5028199;28;20064;-68
2022/08/26 15:06:24;;;;;;;5.70;3.95;;;31.20;97.10;;;;;;5029744;28;20048;-68
2022/08/26 15:09:47;;;;;;;6.43;3.90;;;30.80;97.70;;;;;;5031022;28;20531;-68
2022/08/26 15:12:51;;;;;;;8.10;3.95;;;30.40;98.30;;;;;;5033333;28;20037;-68
2022/08/26 15:15:55;;;;;;;11.98;4.03;;;30.20;98.80;;;;;;5033419;28;20049;-67
2022/08/26 15:19:03;;;;;;;6.85;3.85;;;30.00;99.50;;;;;;5033246;28;20044;-68
2022/08/26 15:22:07;;;;;;;13.85;5.65;;;29.90;99.90;;;;;;5032436;28;20037;-68
2022/08/26 15:25:12;;;;;;;8.55;4.03;;;29.80;99.90;;;;;;5032491;28;20040;-68
2022/08/26 15:28:15;;;;;;;6.80;4.63;;;29.70;99.90;;;;;;5033109;28;20053;-68
2022/08/26 15:34:48;;;;;;;9.80;4.65;;;29.40;99.90;;;;;;5032513;28;20281;-68
2022/08/26 15:37:52;;;;;;;8.18;5.05;;;29.30;99.90;;;;;;5033083;28;20064;-67
2022/08/26 15:40:58;;;;;;;8.25;4.40;;;29.10;99.90;;;;;;5033045;28;20040;-68
2022/08/26 15:44:22;;;;;;;10.35;4.18;;;29.00;99.90;;;;;;5032339;28;20407;-69
2022/08/26 15:47:26;;;;;;;10.32;4.35;;;28.90;99.90;;;;;;5032847;28;20044;-68
2022/08/26 15:50:31;;;;;;;9.30;4.68;;;28.70;99.90;;;;;;5032750;28;20044;-68
2022/08/26 15:53:35;;;;;;;10.63;5.10;;;28.60;99.90;;;;;;5032127;28;20037;-68
2022/08/26 15:57:01;;;;;;;8.45;4.28;;;28.40;99.90;;;;;;5032478;28;20041;-68
2022/08/26 16:00:06;;;;;;;12.38;5.22;;;28.30;99.90;;;;;;5032669;28;20054;-68
2022/08/26 16:03:15;;;;;;;8.10;4.55;;;28.20;99.90;;;;;;5031161;28;20392;-69
2022/08/26 16:06:41;;;;;;;8.20;5.07;;;28.00;99.90;;;;;;5032311;28;20053;-69
2022/08/26 16:09:49;;;;;;;9.85;5.90;;;27.90;99.90;;;;;;5032439;28;20392;-69
2022/08/26 16:12:54;;;;;;;11.18;5.07;;;27.90;99.90;;;;;;5032165;28;20040;-69
2022/08/26 16:15:59;;;;;;;7.03;4.82;;;28.10;99.90;;;;;;5032249;28;20053;-68
2022/08/26 16:19:03;;;;;;;8.27;4.68;;;28.50;99.90;;;;;;5031995;28;20060;-69
2022/08/26 16:22:07;;;;;;;8.63;4.55;;;29.10;99.90;;;;;;5031091;28;20040;-69
2022/08/26 16:25:12;;;;;;;9.15;4.20;;;29.80;99.90;;;;;;5031515;28;20048;-69
2022/08/26 16:28:17;;;;;;;8.57;4.85;;;30.60;99.10;;;;;;5032119;28;20052;-68
2022/08/26 16:31:21;;;;;;;7.35;4.55;;;31.30;98.10;;;;;;5032141;28;20049;-69
2022/08/26 16:34:25;;;;;;;10.18;4.53;;;31.80;97.50;;;;;;5031252;28;20044;-68
2022/08/26 16:37:29;;;;;;;6.18;3.47;;;32.20;97.70;;;;;;5031884;28;20048;-69
2022/08/26 16:40:33;;;;;;;7.15;3.50;;;32.40;97.40;;;;;;5031843;28;20105;-69
2022/08/26 16:43:37;;;;;;;5.90;3.50;;;32.30;96.80;;;;;;5031142;28;20061;-69
2022/08/26 16:46:41;;;;;;;7.32;3.97;;;31.90;97.20;;;;;;5031845;28;20495;-69
2022/08/26 16:50:03;;;;;;;8.23;4.28;;;30.70;99.20;;;;;;5030486;28;20064;-69
2022/08/26 16:53:08;;;;;;;7.18;4.20;;;30.30;99.90;;;;;;5031411;28;20057;-69
2022/08/26 16:56:18;;;;;;;9.70;4.28;;;30.20;99.90;;;;;;5030416;28;20049;-69
2022/08/26 16:59:22;;;;;;;8.65;4.03;;;30.20;99.90;;;;;;5031438;28;20037;-69
2022/08/26 17:02:26;;;;;;;6.95;4.10;;;30.20;99.90;;;;;;5030310;28;20384;-69
2022/08/26 17:05:30;;;;;;;5.68;3.92;;;30.20;99.90;;;;;;5030723;28;20514;-68
2022/08/26 17:08:36;;;;;;;8.68;4.25;;;30.20;99.90;;;;;;5030036;28;20423;-68
2022/08/26 17:11:40;;;;;;;8.57;4.28;;;30.20;99.90;;;;;;5031181;28;20388;-69
2022/08/26 17:14:44;;;;;;;6.40;4.20;;;30.20;99.90;;;;;;5027616;28;20032;-68
2022/08/26 17:17:49;;;;;;;9.93;5.13;;;30.10;99.90;;;;;;5031473;28;20060;-69
2022/08/26 17:20:54;;;;;;;6.88;4.25;;;29.80;99.90;;;;;;5029341;28;20048;-69
2022/08/26 17:23:59;;;;;;;6.63;4.45;;;29.60;99.90;;;;;;5030998;28;20052;-69
2022/08/26 17:27:03;;;;;;;8.20;4.25;;;29.40;99.90;;;;;;5029836;28;20510;-69
2022/08/26 17:30:08;;;;;;;11.52;4.63;;;29.20;99.90;;;;;;5028251;28;20674;-68
2022/08/26 17:36:53;;;;;;;12.15;4.53;;;28.80;99.90;;;;;;5029857;28;20052;-68
2022/08/26 17:39:59;;;;;;;10.65;5.05;;;28.40;99.90;;;;;;5029456;28;20045;-69
2022/08/26 17:46:26;;;;;;;7.60;5.18;;;27.80;99.90;;;;;;5029813;28;20384;-69
2022/08/26 17:49:30;;;;;;;9.70;5.20;;;27.50;99.90;;;;;;5028412;28;20082;-68
2022/08/26 17:52:35;;;;;;;11.20;5.13;;;27.20;99.90;;;;;;5030555;28;20064;-68
2022/08/26 17:55:41;;;;;;;9.60;5.07;;;27.00;99.90;;;;;;5029869;28;20056;-69
2022/08/26 17:58:45;;;;;;;14.13;5.25;;;26.80;99.90;;;;;;5030763;28;20044;-68